WetterOnline ( http://www.wetteronline.de )

Wetter aktuell Oeverdiek, Neuhof, Timmendorfer Strand

Aktuelles Wetter: Lübeck/Blankensee (15m)

6-stündlich | Neueste Meldungen
Ortszeit Temperatur Wetter
Do, 15.11. 13:00 11.0° C fast wolkenlos
Do, 15.11. 7:00 5.6° C bewölkt
Do, 15.11. 1:00 8.2° C bedeckt
Mi, 14.11. 19:00 8.7° C bedeckt
Mi, 14.11. 13:00 9.3° C bewölkt
Mi, 14.11. 7:00 6.2° C bedeckt
Mi, 14.11. 1:00 9.5° C bedeckt
Di, 13.11. 19:00 9.7° C Sprühregen
Ortszeit Temperatur Wetter
Do, 15.11. 15:00 11.2° C wolkenlos
Do, 15.11. 14:50 11.2° C wolkenlos
Do, 15.11. 14:40 11.4° C leicht bewölkt
Do, 15.11. 14:30 11.7° C bewölkt
Do, 15.11. 14:20 11.7° C bewölkt
Do, 15.11. 14:10 11.5° C bewölkt
Do, 15.11. 14:00 11.4° C wolkig
Do, 15.11. 13:30 11.1° C wolkenlos
Do, 15.11. 13:00 11.0° C fast wolkenlos
Do, 15.11. 12:30 11.0° C wolkenlos
Do, 15.11. 12:00 10.6° C leicht bewölkt
Ortszeit Relative Feuchte Sichtweite
Do, 15.11. 13:00 72% 15 km
Do, 15.11. 7:00 100% 5.0 km
Do, 15.11. 1:00 94% 12 km
Mi, 14.11. 19:00 95% 7 km
Mi, 14.11. 13:00 91% 7 km
Mi, 14.11. 7:00 99% 5.0 km
Mi, 14.11. 1:00 85% 26 km
Di, 13.11. 19:00 90% 14 km
Ortszeit Relative Feuchte Sichtweite
Do, 15.11. 15:00 71% 21 km
Do, 15.11. 14:50 71% -
Do, 15.11. 14:40 70% -
Do, 15.11. 14:30 68% 19 km
Do, 15.11. 14:20 68% -
Do, 15.11. 14:10 68% -
Do, 15.11. 14:00 69% 15 km
Do, 15.11. 13:30 70% 21 km
Do, 15.11. 13:00 72% 15 km
Do, 15.11. 12:30 75% 22 km
Do, 15.11. 12:00 76% 15 km
Ortszeit Niederschlagsmenge Niederschlagsart
Do, 15.11. 13:00 0.0 l/m2 in 6 Std. -
Do, 15.11. 7:00 0.0 l/m2 in 12 Std. -
Do, 15.11. 1:00 0.0 l/m2 in 6 Std. -
Mi, 14.11. 19:00 0.0 l/m2 in 12 Std. -
Mi, 14.11. 13:00 0.0 l/m2 in 6 Std. -
Mi, 14.11. 7:00 0.1 l/m2 in 12 Std. -
Mi, 14.11. 1:00 0.1 l/m2 in 6 Std. Regen
Di, 13.11. 19:00 1 l/m2 in 12 Std. Regen
Ortszeit Niederschlagsmenge Niederschlagsart
Do, 15.11. 15:00 0.0 l/m2 in 1 Std. -
Do, 15.11. 14:50 keine Meldung -
Do, 15.11. 14:40 keine Meldung -
Do, 15.11. 14:30 0.0 l/m2 in 1 Std. -
Do, 15.11. 14:20 keine Meldung -
Do, 15.11. 14:10 keine Meldung -
Do, 15.11. 14:00 0.0 l/m2 in 1 Std. -
Do, 15.11. 13:30 0.0 l/m2 in 1 Std. -
Do, 15.11. 13:00 0.0 l/m2 in 1 Std. -
Do, 15.11. 12:30 0.0 l/m2 in 1 Std. -
Do, 15.11. 12:00 0.0 l/m2 in 1 Std. -
Ortszeit Stärke Spitze Richtung
km/h Bft. km/h Grad Sektor
Do, 15.11. 13:00 9 2 22 120° SO
Do, 15.11. 7:00 6 1 13 140° SO
Do, 15.11. 1:00 7 2 14 150° SO
Mi, 14.11. 19:00 4 1 18 160° S
Mi, 14.11. 13:00 4 1 18 190° S
Mi, 14.11. 7:00 4 1 29 220° SW
Mi, 14.11. 1:00 14 3 36 240° SW
Di, 13.11. 19:00 11 2 30 240° SW
Ortszeit Stärke Spitze Richtung
km/h Bft. km/h Grad Sektor
Do, 15.11. 15:00 9 2 24 120° SO
Do, 15.11. 14:50 9 2 - 120° SO
Do, 15.11. 14:40 9 2 - 130° SO
Do, 15.11. 14:30 13 3 24 120° SO
Do, 15.11. 14:20 13 3 - 120° SO
Do, 15.11. 14:10 11 2 - 120° SO
Do, 15.11. 14:00 11 2 22 120° SO
Do, 15.11. 13:30 11 2 22 130° SO
Do, 15.11. 13:00 9 2 22 120° SO
Do, 15.11. 12:30 11 2 20 120° SO
Do, 15.11. 12:00 9 2 19 140° SO
Ortszeit Untergrenze Bedeckung Gattung
total tief tief mittel hoch
Do, 15.11. 13:00 10500 m 1/8 0/8 - - -
Do, 15.11. 7:00 3600 m 8/8 7/8 - - -
Do, 15.11. 1:00 3600 m 8/8 8/8 - - -
Mi, 14.11. 19:00 3000 m 8/8 8/8 - - -
Mi, 14.11. 13:00 210 m 8/8 7/8 - - -
Mi, 14.11. 7:00 5700 m 8/8 8/8 - - -
Mi, 14.11. 1:00 1470 m 8/8 8/8 - - -
Di, 13.11. 19:00 690 m 8/8 8/8 - - -
Ortszeit Bedeckungsgrad in Achtel und Wolkenuntergrenze
Do, 15.11. 15:00 keine Wolken
Do, 15.11. 14:50 keine Wolken
Do, 15.11. 14:40 1(4500m) 2(9000m)
Do, 15.11. 14:30 5(4500m) 8(9000m)
Do, 15.11. 14:20 5(4500m) 8(9000m)
Do, 15.11. 14:10 7(4500m) 7(9000m)
Do, 15.11. 14:00 5(4500m)
Do, 15.11. 13:30 1(4500m)
Do, 15.11. 13:00 1(10500m)
Do, 15.11. 12:30 2(10500m)
Do, 15.11. 12:00 2(6300m)
Ortszeit Luftdruck NN (hPa) Tendenz (hPa in 3 Std.)
Do, 15.11. 13:00 1029 - 0,3
Do, 15.11. 7:00 1028 0,0
Do, 15.11. 1:00 1028 - 0,1
Mi, 14.11. 19:00 1028 - 0,3
Mi, 14.11. 13:00 1029 + 0,2
Mi, 14.11. 7:00 1027 + 1,0
Mi, 14.11. 1:00 1025 + 1,6
Di, 13.11. 19:00 1022 + 2,0
Ortszeit Luftdruck NN (hPa) Tendenz (hPa in 3 Std.)
Do, 15.11. 15:00 1029 - 0,6
Do, 15.11. 14:50 1029 keine Meldung
Do, 15.11. 14:40 1029 keine Meldung
Do, 15.11. 14:30 1029 - 0,6
Do, 15.11. 14:20 1029 keine Meldung
Do, 15.11. 14:10 1029 keine Meldung
Do, 15.11. 14:00 1029 - 0,6
Do, 15.11. 13:30 1029 - 0,6
Do, 15.11. 13:00 1029 - 0,3
Do, 15.11. 12:30 1029 + 0,1
Do, 15.11. 12:00 1029 + 0,3
Ortszeit Schneehöhe (cm)
Do, 15.11. 13:00 0
Do, 15.11. 7:00 0
Do, 15.11. 1:00 0
Mi, 14.11. 19:00 0
Mi, 14.11. 13:00 0
Mi, 14.11. 7:00 0
Mi, 14.11. 1:00 0
Di, 13.11. 19:00 0
Ortszeit Schneehöhe (cm)
Do, 15.11. 15:00 0
Do, 15.11. 14:50 0
Do, 15.11. 14:40 0
Do, 15.11. 14:30 0
Do, 15.11. 14:20 0
Do, 15.11. 14:10 0
Do, 15.11. 14:00 0
Do, 15.11. 13:30 0
Do, 15.11. 13:00 0
Do, 15.11. 12:30 0
Do, 15.11. 12:00 0
Link zu dieser Seite / Seite empfehlen

Das Wetter in ...